sensor_id;sensor_type;location;lat;lon;timestamp;temperature;humidity
8114;DHT22;4099;52.684;9.918;2022-09-02T00:02:53;11.70;99.90
8114;DHT22;4099;52.684;9.918;2022-09-02T00:07:55;11.70;99.90
8114;DHT22;4099;52.684;9.918;2022-09-02T00:12:58;11.70;99.90
8114;DHT22;4099;52.684;9.918;2022-09-02T00:17:59;11.80;99.90
8114;DHT22;4099;52.684;9.918;2022-09-02T00:23:01;11.80;99.90
8114;DHT22;4099;52.684;9.918;2022-09-02T00:28:05;11.70;99.90
8114;DHT22;4099;52.684;9.918;2022-09-02T00:33:07;11.80;99.90
8114;DHT22;4099;52.684;9.918;2022-09-02T00:38:10;11.70;99.90
8114;DHT22;4099;52.684;9.918;2022-09-02T00:43:22;11.60;99.90
8114;DHT22;4099;52.684;9.918;2022-09-02T00:48:24;11.50;99.90
8114;DHT22;4099;52.684;9.918;2022-09-02T00:53:26;11.40;99.90
8114;DHT22;4099;52.684;9.918;2022-09-02T00:58:32;11.40;99.90
8114;DHT22;4099;52.684;9.918;2022-09-02T01:03:34;11.30;99.90
8114;DHT22;4099;52.684;9.918;2022-09-02T01:08:37;11.20;99.90
8114;DHT22;4099;52.684;9.918;2022-09-02T01:13:41;11.00;99.90
8114;DHT22;4099;52.684;9.918;2022-09-02T01:18:48;10.80;99.90
8114;DHT22;4099;52.684;9.918;2022-09-02T01:23:52;10.60;99.90
8114;DHT22;4099;52.684;9.918;2022-09-02T01:28:54;10.50;99.90
8114;DHT22;4099;52.684;9.918;2022-09-02T01:33:56;10.60;99.90
8114;DHT22;4099;52.684;9.918;2022-09-02T01:39:00;10.70;99.90
8114;DHT22;4099;52.684;9.918;2022-09-02T01:44:03;10.70;99.90
8114;DHT22;4099;52.684;9.918;2022-09-02T01:49:05;10.70;99.90
8114;DHT22;4099;52.684;9.918;2022-09-02T01:54:08;10.60;99.90
8114;DHT22;4099;52.684;9.918;2022-09-02T01:59:10;10.60;99.90
8114;DHT22;4099;52.684;9.918;2022-09-02T02:04:17;10.60;99.90
8114;DHT22;4099;52.684;9.918;2022-09-02T02:09:22;10.60;99.90
8114;DHT22;4099;52.684;9.918;2022-09-02T02:14:25;10.60;99.90
8114;DHT22;4099;52.684;9.918;2022-09-02T02:19:27;10.40;99.90
8114;DHT22;4099;52.684;9.918;2022-09-02T02:24:31;10.20;99.90
8114;DHT22;4099;52.684;9.918;2022-09-02T02:29:34;10.10;99.90
8114;DHT22;4099;52.684;9.918;2022-09-02T02:34:36;10.10;99.90
8114;DHT22;4099;52.684;9.918;2022-09-02T02:39:41;10.10;99.90
8114;DHT22;4099;52.684;9.918;2022-09-02T02:44:45;10.10;99.90
8114;DHT22;4099;52.684;9.918;2022-09-02T02:49:47;10.20;99.90
8114;DHT22;4099;52.684;9.918;2022-09-02T02:54:50;10.10;99.90
8114;DHT22;4099;52.684;9.918;2022-09-02T02:59:53;10.10;99.90
8114;DHT22;4099;52.684;9.918;2022-09-02T03:04:57;10.20;99.90
8114;DHT22;4099;52.684;9.918;2022-09-02T03:10:00;10.30;99.90
8114;DHT22;4099;52.684;9.918;2022-09-02T03:15:05;10.30;99.90
8114;DHT22;4099;52.684;9.918;2022-09-02T03:20:08;10.30;99.90
8114;DHT22;4099;52.684;9.918;2022-09-02T03:25:17;10.30;99.90
8114;DHT22;4099;52.684;9.918;2022-09-02T03:30:23;10.30;99.90
8114;DHT22;4099;52.684;9.918;2022-09-02T03:35:27;10.20;99.90
8114;DHT22;4099;52.684;9.918;2022-09-02T03:40:30;10.20;99.90
8114;DHT22;4099;52.684;9.918;2022-09-02T03:45:32;10.10;99.90
8114;DHT22;4099;52.684;9.918;2022-09-02T03:50:41;9.90;99.90
8114;DHT22;4099;52.684;9.918;2022-09-02T03:55:48;9.90;99.90
8114;DHT22;4099;52.684;9.918;2022-09-02T04:00:51;9.80;99.90
8114;DHT22;4099;52.684;9.918;2022-09-02T04:05:54;9.80;99.90
8114;DHT22;4099;52.684;9.918;2022-09-02T04:11:04;9.70;99.90
8114;DHT22;4099;52.684;9.918;2022-09-02T04:16:07;9.70;99.90
8114;DHT22;4099;52.684;9.918;2022-09-02T04:21:09;9.70;99.90
8114;DHT22;4099;52.684;9.918;2022-09-02T04:26:15;9.70;99.90
8114;DHT22;4099;52.684;9.918;2022-09-02T04:31:19;9.70;99.90
8114;DHT22;4099;52.684;9.918;2022-09-02T04:36:22;9.70;99.90
8114;DHT22;4099;52.684;9.918;2022-09-02T04:41:29;9.70;99.90
8114;DHT22;4099;52.684;9.918;2022-09-02T04:46:35;9.60;99.90
8114;DHT22;4099;52.684;9.918;2022-09-02T04:51:41;9.60;99.90
8114;DHT22;4099;52.684;9.918;2022-09-02T04:56:45;9.70;99.90
8114;DHT22;4099;52.684;9.918;2022-09-02T05:01:48;9.80;99.90
8114;DHT22;4099;52.684;9.918;2022-09-02T05:06:54;9.80;99.90
8114;DHT22;4099;52.684;9.918;2022-09-02T05:11:59;9.90;99.90
8114;DHT22;4099;52.684;9.918;2022-09-02T05:17:08;9.90;99.90
8114;DHT22;4099;52.684;9.918;2022-09-02T05:22:13;10.10;99.90
8114;DHT22;4099;52.684;9.918;2022-09-02T05:27:18;10.10;99.90
8114;DHT22;4099;52.684;9.918;2022-09-02T05:32:22;10.20;99.90
8114;DHT22;4099;52.684;9.918;2022-09-02T05:37:25;10.20;99.90
8114;DHT22;4099;52.684;9.918;2022-09-02T05:42:29;10.40;99.90
8114;DHT22;4099;52.684;9.918;2022-09-02T05:47:32;10.60;99.90
8114;DHT22;4099;52.684;9.918;2022-09-02T05:52:34;10.70;99.90
8114;DHT22;4099;52.684;9.918;2022-09-02T05:57:38;10.80;99.90
8114;DHT22;4099;52.684;9.918;2022-09-02T06:02:42;11.00;99.90
8114;DHT22;4099;52.684;9.918;2022-09-02T06:07:59;11.20;99.90
8114;DHT22;4099;52.684;9.918;2022-09-02T06:13:02;11.30;99.90
8114;DHT22;4099;52.684;9.918;2022-09-02T06:18:07;11.50;99.90
8114;DHT22;4099;52.684;9.918;2022-09-02T06:23:10;11.70;99.90
8114;DHT22;4099;52.684;9.918;2022-09-02T06:28:16;11.90;99.90
8114;DHT22;4099;52.684;9.918;2022-09-02T06:33:20;12.20;99.90
8114;DHT22;4099;52.684;9.918;2022-09-02T06:38:23;12.30;99.90
8114;DHT22;4099;52.684;9.918;2022-09-02T06:43:27;12.50;99.90
8114;DHT22;4099;52.684;9.918;2022-09-02T06:48:44;12.80;99.90
8114;DHT22;4099;52.684;9.918;2022-09-02T06:53:49;13.00;99.90
8114;DHT22;4099;52.684;9.918;2022-09-02T06:58:53;13.20;99.90
8114;DHT22;4099;52.684;9.918;2022-09-02T07:03:57;13.40;99.90
8114;DHT22;4099;52.684;9.918;2022-09-02T07:09:19;13.70;99.90
8114;DHT22;4099;52.684;9.918;2022-09-02T07:14:25;13.90;99.90
8114;DHT22;4099;52.684;9.918;2022-09-02T07:19:29;14.10;99.90
8114;DHT22;4099;52.684;9.918;2022-09-02T07:24:31;14.40;99.90
8114;DHT22;4099;52.684;9.918;2022-09-02T07:29:35;14.70;99.90
8114;DHT22;4099;52.684;9.918;2022-09-02T07:34:38;15.20;99.90
8114;DHT22;4099;52.684;9.918;2022-09-02T07:39:40;15.60;99.90
8114;DHT22;4099;52.684;9.918;2022-09-02T07:44:45;16.00;92.90
8114;DHT22;4099;52.684;9.918;2022-09-02T07:49:47;16.30;21.20
8114;DHT22;4099;52.684;9.918;2022-09-02T07:54:49;16.80;1.00
8114;DHT22;4099;52.684;9.918;2022-09-02T07:59:52;17.20;1.00
8114;DHT22;4099;52.684;9.918;2022-09-02T08:04:54;17.70;1.00
8114;DHT22;4099;52.684;9.918;2022-09-02T08:09:56;18.10;1.00
8114;DHT22;4099;52.684;9.918;2022-09-02T08:15:02;18.50;1.00
8114;DHT22;4099;52.684;9.918;2022-09-02T08:20:05;18.70;99.90
8114;DHT22;4099;52.684;9.918;2022-09-02T08:25:08;19.10;99.90
8114;DHT22;4099;52.684;9.918;2022-09-02T08:30:12;19.40;1.00
8114;DHT22;4099;52.684;9.918;2022-09-02T08:35:14;19.70;99.90
8114;DHT22;4099;52.684;9.918;2022-09-02T08:40:18;20.00;99.90
8114;DHT22;4099;52.684;9.918;2022-09-02T08:45:23;20.40;1.00
8114;DHT22;4099;52.684;9.918;2022-09-02T08:50:26;20.60;99.90
8114;DHT22;4099;52.684;9.918;2022-09-02T08:55:35;20.90;99.90
8114;DHT22;4099;52.684;9.918;2022-09-02T09:00:43;21.00;1.00
8114;DHT22;4099;52.684;9.918;2022-09-02T09:05:54;21.00;1.00
8114;DHT22;4099;52.684;9.918;2022-09-02T09:11:01;21.00;99.90
8114;DHT22;4099;52.684;9.918;2022-09-02T09:16:08;21.10;1.00
8114;DHT22;4099;52.684;9.918;2022-09-02T09:21:11;21.40;99.90
8114;DHT22;4099;52.684;9.918;2022-09-02T09:26:16;21.50;1.00
8114;DHT22;4099;52.684;9.918;2022-09-02T09:31:22;21.70;99.90
8114;DHT22;4099;52.684;9.918;2022-09-02T09:36:46;21.90;99.90
8114;DHT22;4099;52.684;9.918;2022-09-02T09:41:49;21.70;1.00
8114;DHT22;4099;52.684;9.918;2022-09-02T09:46:59;21.90;1.00
8114;DHT22;4099;52.684;9.918;2022-09-02T09:52:03;22.10;1.00
8114;DHT22;4099;52.684;9.918;2022-09-02T09:57:16;21.90;1.00
8114;DHT22;4099;52.684;9.918;2022-09-02T10:02:22;22.00;1.00
8114;DHT22;4099;52.684;9.918;2022-09-02T10:07:35;22.10;1.00
8114;DHT22;4099;52.684;9.918;2022-09-02T10:12:37;22.30;1.00
8114;DHT22;4099;52.684;9.918;2022-09-02T10:17:48;22.50;1.00
8114;DHT22;4099;52.684;9.918;2022-09-02T10:23:10;22.50;1.00
8114;DHT22;4099;52.684;9.918;2022-09-02T10:28:25;22.80;1.00
8114;DHT22;4099;52.684;9.918;2022-09-02T10:33:36;23.30;1.00
8114;DHT22;4099;52.684;9.918;2022-09-02T10:38:42;23.50;1.00
8114;DHT22;4099;52.684;9.918;2022-09-02T10:43:54;23.60;1.00
8114;DHT22;4099;52.684;9.918;2022-09-02T10:49:06;23.90;1.00
8114;DHT22;4099;52.684;9.918;2022-09-02T10:54:20;24.30;1.00
8114;DHT22;4099;52.684;9.918;2022-09-02T10:59:28;24.30;1.00
8114;DHT22;4099;52.684;9.918;2022-09-02T11:04:37;24.40;1.00
8114;DHT22;4099;52.684;9.918;2022-09-02T11:09:42;24.20;1.00
8114;DHT22;4099;52.684;9.918;2022-09-02T11:14:55;24.70;1.00
8114;DHT22;4099;52.684;9.918;2022-09-02T11:20:11;25.00;1.00
8114;DHT22;4099;52.684;9.918;2022-09-02T11:25:19;25.60;1.00
8114;DHT22;4099;52.684;9.918;2022-09-02T11:30:24;25.50;1.00
8114;DHT22;4099;52.684;9.918;2022-09-02T11:35:32;25.90;1.00
8114;DHT22;4099;52.684;9.918;2022-09-02T11:40:48;25.60;1.00
8114;DHT22;4099;52.684;9.918;2022-09-02T11:46:22;25.10;1.00
8114;DHT22;4099;52.684;9.918;2022-09-02T11:51:52;24.80;1.00
8114;DHT22;4099;52.684;9.918;2022-09-02T11:56:59;24.20;1.00
8114;DHT22;4099;52.684;9.918;2022-09-02T12:02:03;24.70;1.00
8114;DHT22;4099;52.684;9.918;2022-09-02T12:07:24;25.50;1.00
8114;DHT22;4099;52.684;9.918;2022-09-02T12:18:27;25.20;1.00
8114;DHT22;4099;52.684;9.918;2022-09-02T12:24:04;24.60;1.00
8114;DHT22;4099;52.684;9.918;2022-09-02T12:29:10;24.80;1.00
8114;DHT22;4099;52.684;9.918;2022-09-02T12:39:54;26.00;1.00
8114;DHT22;4099;52.684;9.918;2022-09-02T12:45:05;25.30;1.00
8114;DHT22;4099;52.684;9.918;2022-09-02T12:50:18;23.90;1.00
8114;DHT22;4099;52.684;9.918;2022-09-02T12:55:27;25.10;1.00
8114;DHT22;4099;52.684;9.918;2022-09-02T13:00:36;26.70;1.00
8114;DHT22;4099;52.684;9.918;2022-09-02T13:05:52;26.30;1.00
8114;DHT22;4099;52.684;9.918;2022-09-02T13:16:55;27.60;1.00
8114;DHT22;4099;52.684;9.918;2022-09-02T13:22:24;28.40;1.00
8114;DHT22;4099;52.684;9.918;2022-09-02T13:27:54;27.90;1.00
8114;DHT22;4099;52.684;9.918;2022-09-02T13:33:05;27.70;1.00
8114;DHT22;4099;52.684;9.918;2022-09-02T13:38:10;27.30;1.00
8114;DHT22;4099;52.684;9.918;2022-09-02T13:43:18;26.60;1.00
8114;DHT22;4099;52.684;9.918;2022-09-02T13:48:21;25.60;1.00
8114;DHT22;4099;52.684;9.918;2022-09-02T13:53:26;25.10;1.00
8114;DHT22;4099;52.684;9.918;2022-09-02T13:58:35;24.70;1.00
8114;DHT22;4099;52.684;9.918;2022-09-02T14:03:38;24.50;1.00
8114;DHT22;4099;52.684;9.918;2022-09-02T14:08:42;24.90;1.00
8114;DHT22;4099;52.684;9.918;2022-09-02T14:13:49;25.70;1.00
8114;DHT22;4099;52.684;9.918;2022-09-02T14:19:09;25.70;1.00
8114;DHT22;4099;52.684;9.918;2022-09-02T14:24:15;25.70;1.00
8114;DHT22;4099;52.684;9.918;2022-09-02T14:29:22;24.90;1.00
8114;DHT22;4099;52.684;9.918;2022-09-02T14:34:32;24.80;1.00
8114;DHT22;4099;52.684;9.918;2022-09-02T14:39:50;24.90;1.00
8114;DHT22;4099;52.684;9.918;2022-09-02T14:44:54;24.80;1.00
8114;DHT22;4099;52.684;9.918;2022-09-02T14:49:58;24.70;1.00
8114;DHT22;4099;52.684;9.918;2022-09-02T14:55:00;24.50;1.00
8114;DHT22;4099;52.684;9.918;2022-09-02T15:00:09;24.20;1.00
8114;DHT22;4099;52.684;9.918;2022-09-02T15:05:13;24.10;1.00
8114;DHT22;4099;52.684;9.918;2022-09-02T15:10:16;24.10;1.00
8114;DHT22;4099;52.684;9.918;2022-09-02T15:15:20;24.10;1.00
8114;DHT22;4099;52.684;9.918;2022-09-02T15:20:22;24.00;1.00
8114;DHT22;4099;52.684;9.918;2022-09-02T15:25:26;23.80;1.00
8114;DHT22;4099;52.684;9.918;2022-09-02T15:30:33;23.50;1.00
8114;DHT22;4099;52.684;9.918;2022-09-02T15:35:36;23.30;1.00
8114;DHT22;4099;52.684;9.918;2022-09-02T15:40:39;23.20;1.00
8114;DHT22;4099;52.684;9.918;2022-09-02T15:45:44;23.00;1.00
8114;DHT22;4099;52.684;9.918;2022-09-02T15:50:46;23.00;1.00
8114;DHT22;4099;52.684;9.918;2022-09-02T15:55:49;23.70;1.00
8114;DHT22;4099;52.684;9.918;2022-09-02T16:00:52;23.70;1.00
8114;DHT22;4099;52.684;9.918;2022-09-02T16:06:00;24.00;1.00
8114;DHT22;4099;52.684;9.918;2022-09-02T16:11:04;24.60;1.00
8114;DHT22;4099;52.684;9.918;2022-09-02T16:16:10;24.90;1.00
8114;DHT22;4099;52.684;9.918;2022-09-02T16:21:13;24.60;1.00
8114;DHT22;4099;52.684;9.918;2022-09-02T16:26:21;23.60;1.00
8114;DHT22;4099;52.684;9.918;2022-09-02T16:31:27;22.90;1.00
8114;DHT22;4099;52.684;9.918;2022-09-02T16:36:32;22.50;1.00
8114;DHT22;4099;52.684;9.918;2022-09-02T16:41:35;22.10;1.00
8114;DHT22;4099;52.684;9.918;2022-09-02T16:46:40;21.80;1.00
8114;DHT22;4099;52.684;9.918;2022-09-02T16:51:43;21.60;1.00
8114;DHT22;4099;52.684;9.918;2022-09-02T16:56:46;21.50;1.00
8114;DHT22;4099;52.684;9.918;2022-09-02T17:01:50;21.40;1.00
8114;DHT22;4099;52.684;9.918;2022-09-02T17:06:52;21.30;1.00
8114;DHT22;4099;52.684;9.918;2022-09-02T17:11:54;21.10;1.00
8114;DHT22;4099;52.684;9.918;2022-09-02T17:16:58;20.90;1.00
8114;DHT22;4099;52.684;9.918;2022-09-02T17:22:01;20.70;1.00
8114;DHT22;4099;52.684;9.918;2022-09-02T17:27:03;20.50;1.00
8114;DHT22;4099;52.684;9.918;2022-09-02T17:32:07;20.40;1.00
8114;DHT22;4099;52.684;9.918;2022-09-02T17:37:09;20.20;1.00
8114;DHT22;4099;52.684;9.918;2022-09-02T17:42:12;19.90;1.00
8114;DHT22;4099;52.684;9.918;2022-09-02T17:47:17;19.70;1.00
8114;DHT22;4099;52.684;9.918;2022-09-02T17:52:21;19.50;1.00
8114;DHT22;4099;52.684;9.918;2022-09-02T17:57:36;19.20;1.00
8114;DHT22;4099;52.684;9.918;2022-09-02T18:03:19;19.10;1.00
8114;DHT22;4099;52.684;9.918;2022-09-02T18:08:32;18.90;1.00
8114;DHT22;4099;52.684;9.918;2022-09-02T18:13:46;18.70;1.00
8114;DHT22;4099;52.684;9.918;2022-09-02T18:18:57;18.40;1.00
8114;DHT22;4099;52.684;9.918;2022-09-02T18:24:06;18.10;1.00
8114;DHT22;4099;52.684;9.918;2022-09-02T18:29:22;18.00;1.00
8114;DHT22;4099;52.684;9.918;2022-09-02T18:34:37;17.80;1.00
8114;DHT22;4099;52.684;9.918;2022-09-02T18:39:52;17.50;1.00
8114;DHT22;4099;52.684;9.918;2022-09-02T18:45:04;17.30;1.00
8114;DHT22;4099;52.684;9.918;2022-09-02T18:50:10;17.00;1.00
8114;DHT22;4099;52.684;9.918;2022-09-02T18:55:16;16.90;1.00
8114;DHT22;4099;52.684;9.918;2022-09-02T19:00:18;16.90;1.00
8114;DHT22;4099;52.684;9.918;2022-09-02T19:05:25;16.80;1.00
8114;DHT22;4099;52.684;9.918;2022-09-02T19:10:28;16.70;1.00
8114;DHT22;4099;52.684;9.918;2022-09-02T19:15:31;16.60;1.00
8114;DHT22;4099;52.684;9.918;2022-09-02T19:20:35;16.60;1.00
8114;DHT22;4099;52.684;9.918;2022-09-02T19:25:41;16.60;99.90
8114;DHT22;4099;52.684;9.918;2022-09-02T19:30:45;16.50;28.00
8114;DHT22;4099;52.684;9.918;2022-09-02T19:35:49;16.40;99.90
8114;DHT22;4099;52.684;9.918;2022-09-02T19:40:52;16.30;37.20
8114;DHT22;4099;52.684;9.918;2022-09-02T19:45:54;16.30;99.90
8114;DHT22;4099;52.684;9.918;2022-09-02T19:50:58;16.10;1.00
8114;DHT22;4099;52.684;9.918;2022-09-02T19:56:00;16.10;1.00
8114;DHT22;4099;52.684;9.918;2022-09-02T20:01:03;16.00;1.00
8114;DHT22;4099;52.684;9.918;2022-09-02T20:06:07;15.90;99.90
8114;DHT22;4099;52.684;9.918;2022-09-02T20:11:10;15.90;1.00
8114;DHT22;4099;52.684;9.918;2022-09-02T20:16:15;15.80;99.90
8114;DHT22;4099;52.684;9.918;2022-09-02T20:21:23;15.80;1.00
8114;DHT22;4099;52.684;9.918;2022-09-02T20:26:34;15.60;1.00
8114;DHT22;4099;52.684;9.918;2022-09-02T20:31:51;15.40;1.00
8114;DHT22;4099;52.684;9.918;2022-09-02T20:37:08;15.20;99.90
8114;DHT22;4099;52.684;9.918;2022-09-02T20:42:26;15.10;18.80
8114;DHT22;4099;52.684;9.918;2022-09-02T20:47:45;15.00;99.90
8114;DHT22;4099;52.684;9.918;2022-09-02T20:53:06;14.90;99.90
8114;DHT22;4099;52.684;9.918;2022-09-02T20:58:18;14.80;99.90
8114;DHT22;4099;52.684;9.918;2022-09-02T21:03:22;14.90;99.90
8114;DHT22;4099;52.684;9.918;2022-09-02T21:08:30;14.80;99.90
8114;DHT22;4099;52.684;9.918;2022-09-02T21:13:38;14.70;99.90
8114;DHT22;4099;52.684;9.918;2022-09-02T21:18:49;14.50;1.00
8114;DHT22;4099;52.684;9.918;2022-09-02T21:24:02;14.40;1.00
8114;DHT22;4099;52.684;9.918;2022-09-02T21:29:12;14.10;1.00
8114;DHT22;4099;52.684;9.918;2022-09-02T21:34:22;14.00;1.00
8114;DHT22;4099;52.684;9.918;2022-09-02T21:39:31;13.90;1.00
8114;DHT22;4099;52.684;9.918;2022-09-02T21:44:51;13.90;1.00
8114;DHT22;4099;52.684;9.918;2022-09-02T21:50:08;13.90;1.00
8114;DHT22;4099;52.684;9.918;2022-09-02T21:55:22;13.80;1.00
8114;DHT22;4099;52.684;9.918;2022-09-02T22:00:27;13.70;1.00
8114;DHT22;4099;52.684;9.918;2022-09-02T22:05:37;13.60;1.00
8114;DHT22;4099;52.684;9.918;2022-09-02T22:10:52;13.70;1.00
8114;DHT22;4099;52.684;9.918;2022-09-02T22:16:13;13.70;1.00
8114;DHT22;4099;52.684;9.918;2022-09-02T22:21:25;13.70;1.00
8114;DHT22;4099;52.684;9.918;2022-09-02T22:26:37;13.80;1.00
8114;DHT22;4099;52.684;9.918;2022-09-02T22:31:42;13.90;1.00
8114;DHT22;4099;52.684;9.918;2022-09-02T22:36:53;13.90;1.00
8114;DHT22;4099;52.684;9.918;2022-09-02T22:42:09;14.00;1.00
8114;DHT22;4099;52.684;9.918;2022-09-02T22:47:13;14.00;1.00
8114;DHT22;4099;52.684;9.918;2022-09-02T22:52:36;13.80;1.00
8114;DHT22;4099;52.684;9.918;2022-09-02T22:57:56;13.60;1.00
8114;DHT22;4099;52.684;9.918;2022-09-02T23:03:10;13.50;1.00
8114;DHT22;4099;52.684;9.918;2022-09-02T23:08:17;13.40;1.00
8114;DHT22;4099;52.684;9.918;2022-09-02T23:13:34;13.30;1.00
8114;DHT22;4099;52.684;9.918;2022-09-02T23:18:45;13.00;1.00
8114;DHT22;4099;52.684;9.918;2022-09-02T23:23:59;12.90;1.00
8114;DHT22;4099;52.684;9.918;2022-09-02T23:29:15;12.80;1.00
8114;DHT22;4099;52.684;9.918;2022-09-02T23:34:25;12.70;1.00
8114;DHT22;4099;52.684;9.918;2022-09-02T23:39:45;12.60;1.00
8114;DHT22;4099;52.684;9.918;2022-09-02T23:44:52;12.50;1.00
8114;DHT22;4099;52.684;9.918;2022-09-02T23:50:10;12.50;1.00
8114;DHT22;4099;52.684;9.918;2022-09-02T23:55:22;12.50;1.00
